createdAt,value
2018-06-25T00:01:23.557Z,5.53
2018-06-25T00:03:51.677Z,6.83
2018-06-25T00:06:19.863Z,4.70
2018-06-25T00:08:47.944Z,3.47
2018-06-25T00:11:16.028Z,3.72
2018-06-25T00:13:44.146Z,3.10
2018-06-25T00:16:12.326Z,3.90
2018-06-25T00:18:40.638Z,3.53
2018-06-25T00:21:08.741Z,6.57
2018-06-25T00:23:36.825Z,4.07
2018-06-25T00:26:05.004Z,6.85
2018-06-25T00:28:34.020Z,4.03
2018-06-25T00:31:02.279Z,3.03
2018-06-25T00:33:30.376Z,6.00
2018-06-25T00:35:58.474Z,3.30
2018-06-25T00:38:26.545Z,3.77
2018-06-25T00:40:54.857Z,5.60
2018-06-25T00:43:22.960Z,2.97
2018-06-25T00:45:51.024Z,3.47
2018-06-25T00:48:19.158Z,5.33
2018-06-25T00:50:47.219Z,3.90
2018-06-25T00:53:15.513Z,3.80
2018-06-25T00:55:43.740Z,2.97
2018-06-25T00:58:12.121Z,2.57
2018-06-25T01:00:40.248Z,2.60
2018-06-25T01:03:08.860Z,3.20
2018-06-25T01:05:37.105Z,2.72
2018-06-25T01:08:05.663Z,4.60
2018-06-25T01:10:33.772Z,2.90
2018-06-25T01:13:01.848Z,3.50
2018-06-25T01:15:30.121Z,3.17
2018-06-25T01:17:58.226Z,2.42
2018-06-25T01:20:26.379Z,3.00
2018-06-25T01:22:54.686Z,3.75
2018-06-25T01:25:22.781Z,3.90
2018-06-25T01:27:50.848Z,3.53
2018-06-25T01:30:18.924Z,6.10
2018-06-25T01:32:47.000Z,3.40
2018-06-25T01:35:15.123Z,3.40
2018-06-25T01:37:43.265Z,2.70
2018-06-25T01:40:11.504Z,2.60
2018-06-25T01:42:39.583Z,4.43
2018-06-25T01:45:07.725Z,2.37
2018-06-25T01:47:36.226Z,6.92
2018-06-25T01:50:04.355Z,4.70
2018-06-25T01:52:32.489Z,2.60
2018-06-25T01:55:00.616Z,2.53
2018-06-25T01:57:28.745Z,3.43
2018-06-25T01:59:56.871Z,2.30
2018-06-25T02:02:24.953Z,2.23
2018-06-25T02:04:53.023Z,3.23
2018-06-25T02:07:21.242Z,5.87
2018-06-25T02:09:49.312Z,2.67
2018-06-25T02:12:17.737Z,2.10
2018-06-25T02:14:45.812Z,3.15
2018-06-25T02:17:13.965Z,3.65
2018-06-25T02:19:42.164Z,2.60
2018-06-25T02:22:10.263Z,7.20
2018-06-25T02:24:38.351Z,6.90
2018-06-25T02:27:07.341Z,4.67
2018-06-25T02:29:35.429Z,3.40
2018-06-25T02:32:03.524Z,2.83
2018-06-25T02:34:31.617Z,3.40
2018-06-25T02:36:59.698Z,5.60
2018-06-25T02:39:27.797Z,2.53
2018-06-25T02:41:55.940Z,4.03
2018-06-25T02:44:24.049Z,3.30
2018-06-25T02:46:52.116Z,2.65
2018-06-25T02:49:20.228Z,2.37
2018-06-25T02:51:48.313Z,4.90
2018-06-25T02:54:16.421Z,2.87
2018-06-25T02:56:44.493Z,2.50
2018-06-25T02:59:12.687Z,2.30
2018-06-25T03:01:40.854Z,2.70
2018-06-25T03:04:08.927Z,2.10
2018-06-25T03:06:37.076Z,2.87
2018-06-25T03:09:07.631Z,2.40
2018-06-25T03:11:35.741Z,3.23
2018-06-25T03:14:03.864Z,2.80
2018-06-25T03:16:32.001Z,2.83
2018-06-25T03:19:00.084Z,3.00
2018-06-25T03:21:28.237Z,6.93
2018-06-25T03:23:56.373Z,4.37
2018-06-25T03:26:24.459Z,4.10
2018-06-25T03:28:52.572Z,3.53
2018-06-25T03:31:20.669Z,3.20
2018-06-25T03:33:48.769Z,1.95
2018-06-25T03:36:16.852Z,4.03
2018-06-25T03:38:44.924Z,3.33
2018-06-25T03:41:12.995Z,3.33
2018-06-25T03:43:41.393Z,2.47
2018-06-25T03:46:10.073Z,5.87
2018-06-25T03:48:38.313Z,3.53
2018-06-25T03:51:06.415Z,5.23
2018-06-25T03:53:34.519Z,5.17
2018-06-25T03:56:02.608Z,3.90
2018-06-25T03:58:30.749Z,3.60
2018-06-25T04:00:58.882Z,3.50
2018-06-25T04:03:27.218Z,9.00
2018-06-25T04:05:55.301Z,3.90
2018-06-25T04:08:23.380Z,4.03
2018-06-25T04:10:51.773Z,3.83
2018-06-25T04:13:19.845Z,3.33
2018-06-25T04:15:47.940Z,2.80
2018-06-25T04:18:16.064Z,4.90
2018-06-25T04:20:44.353Z,3.77
2018-06-25T04:23:12.418Z,4.97
2018-06-25T04:25:41.265Z,3.95
2018-06-25T04:28:09.351Z,8.23
2018-06-25T04:30:37.431Z,4.30
2018-06-25T04:33:05.570Z,3.30
2018-06-25T04:35:33.655Z,2.80
2018-06-25T04:38:01.747Z,4.50
2018-06-25T04:40:29.853Z,2.53
2018-06-25T04:42:57.936Z,4.47
2018-06-25T04:45:26.024Z,9.30
2018-06-25T04:47:54.091Z,2.80
2018-06-25T04:50:22.197Z,3.20
2018-06-25T04:52:50.388Z,4.10
2018-06-25T04:55:18.464Z,5.33
2018-06-25T04:57:46.555Z,4.60
2018-06-25T05:00:14.643Z,3.83
2018-06-25T05:02:42.748Z,5.43
2018-06-25T05:05:10.830Z,5.40
2018-06-25T05:07:38.919Z,2.60
2018-06-25T05:10:07.001Z,6.63
2018-06-25T05:12:35.073Z,11.20
2018-06-25T05:15:03.136Z,8.20
2018-06-25T05:17:31.239Z,8.20
2018-06-25T05:19:59.316Z,9.00
2018-06-25T05:22:27.404Z,12.60
2018-06-25T05:24:55.501Z,11.83
2018-06-25T05:27:23.603Z,17.05
2018-06-25T05:29:51.681Z,9.63
2018-06-25T05:32:19.752Z,3.20
2018-06-25T05:34:47.820Z,9.07
2018-06-25T05:37:15.912Z,19.43
2018-06-25T05:39:44.049Z,18.50
2018-06-25T05:42:17.460Z,8.27
2018-06-25T05:44:45.532Z,10.40
2018-06-25T05:47:14.199Z,11.22
2018-06-25T05:49:43.119Z,6.20
2018-06-25T05:52:11.210Z,8.00
2018-06-25T05:54:39.509Z,8.90
2018-06-25T05:57:07.610Z,3.87
2018-06-25T05:59:35.688Z,6.33
2018-06-25T06:02:03.772Z,14.63
2018-06-25T06:04:31.845Z,26.77
2018-06-25T06:06:59.962Z,13.87
2018-06-25T06:09:28.044Z,12.63
2018-06-25T06:11:56.336Z,15.10
2018-06-25T06:14:24.425Z,8.37
2018-06-25T06:16:52.780Z,10.23
2018-06-25T06:19:20.877Z,4.87
2018-06-25T06:21:49.296Z,6.63
2018-06-25T06:24:17.389Z,4.72
2018-06-25T06:26:45.732Z,3.87
2018-06-25T06:29:13.824Z,2.50
2018-06-25T06:31:41.900Z,5.30
2018-06-25T06:34:09.993Z,5.33
2018-06-25T06:36:38.063Z,2.50
2018-06-25T06:39:09.823Z,2.30
2018-06-25T06:41:37.908Z,2.53
2018-06-25T06:44:06.029Z,2.50
2018-06-25T06:46:34.106Z,3.77
2018-06-25T06:49:02.538Z,3.20
2018-06-25T06:51:30.948Z,2.17
2018-06-25T06:53:58.999Z,2.13
2018-06-25T06:56:27.140Z,2.20
2018-06-25T06:58:55.240Z,2.20
2018-06-25T07:01:23.617Z,1.82
2018-06-25T07:03:51.729Z,3.97
2018-06-25T07:06:20.056Z,2.13
2018-06-25T07:08:48.172Z,2.03
2018-06-25T07:11:16.251Z,4.40
2018-06-25T07:13:44.331Z,1.90
2018-06-25T07:16:12.464Z,1.87
2018-06-25T07:18:40.592Z,3.40
2018-06-25T07:21:08.668Z,4.00
2018-06-25T07:23:36.774Z,2.87
2018-06-25T07:26:05.165Z,1.67
2018-06-25T07:28:33.251Z,1.93
2018-06-25T07:31:02.795Z,2.20
2018-06-25T07:33:31.161Z,4.33
2018-06-25T07:35:59.260Z,2.40
2018-06-25T07:38:27.331Z,2.80
2018-06-25T07:40:55.441Z,2.53
2018-06-25T07:43:23.516Z,3.90
2018-06-25T07:45:51.602Z,2.33
2018-06-25T07:48:19.681Z,1.83
2018-06-25T07:50:47.761Z,4.10
2018-06-25T07:53:15.911Z,2.07
2018-06-25T07:55:43.994Z,2.13
2018-06-25T07:58:12.096Z,1.50
2018-06-25T08:00:40.185Z,1.70
2018-06-25T08:03:08.247Z,3.17
2018-06-25T08:05:36.336Z,14.20
2018-06-25T08:08:04.424Z,1.87
2018-06-25T08:10:32.519Z,4.80
2018-06-25T08:13:00.941Z,2.00
2018-06-25T08:15:29.048Z,1.90
2018-06-25T08:17:57.132Z,1.53
2018-06-25T08:20:25.306Z,2.33
2018-06-25T08:22:53.509Z,1.67
2018-06-25T08:25:21.612Z,2.37
2018-06-25T08:27:49.695Z,1.57
2018-06-25T08:30:17.800Z,2.07
2018-06-25T08:32:45.897Z,2.20
2018-06-25T08:35:14.029Z,1.80
2018-06-25T08:37:42.157Z,1.40
2018-06-25T08:40:10.286Z,3.83
2018-06-25T08:42:38.345Z,2.03
2018-06-25T08:45:06.442Z,3.20
2018-06-25T08:47:34.568Z,1.60
2018-06-25T08:50:02.659Z,4.33
2018-06-25T08:52:30.860Z,2.13
2018-06-25T08:54:58.964Z,1.60
2018-06-25T08:57:27.076Z,2.20
2018-06-25T08:59:55.175Z,1.60
2018-06-25T09:02:23.252Z,2.00
2018-06-25T09:04:51.682Z,3.00
2018-06-25T09:07:19.763Z,3.17
2018-06-25T09:09:47.886Z,1.40
2018-06-25T09:12:15.982Z,2.87
2018-06-25T09:14:44.072Z,1.77
2018-06-25T09:17:12.416Z,1.60
2018-06-25T09:19:40.530Z,2.60
2018-06-25T09:22:08.669Z,2.90
2018-06-25T09:24:36.700Z,1.65
2018-06-25T09:27:05.027Z,1.57
2018-06-25T09:29:33.104Z,1.83
2018-06-25T09:32:01.681Z,1.23
2018-06-25T09:34:35.167Z,1.73
2018-06-25T09:37:03.269Z,3.35
2018-06-25T09:39:31.356Z,1.77
2018-06-25T09:41:59.488Z,1.60
2018-06-25T09:44:27.560Z,3.65
2018-06-25T09:46:55.672Z,3.87
2018-06-25T09:49:23.775Z,1.50
2018-06-25T09:51:51.850Z,1.65
2018-06-25T09:54:19.951Z,1.20
2018-06-25T09:56:48.057Z,1.40
2018-06-25T09:59:16.144Z,1.00
2018-06-25T10:01:44.429Z,1.97
2018-06-25T10:04:12.512Z,1.00
2018-06-25T10:06:40.621Z,2.07
2018-06-25T10:09:10.444Z,5.70
2018-06-25T10:11:38.708Z,1.72
2018-06-25T10:14:06.981Z,1.50
2018-06-25T10:16:35.162Z,2.07
2018-06-25T10:19:03.636Z,1.30
2018-06-25T10:21:31.711Z,2.57
2018-06-25T10:23:59.804Z,1.20
2018-06-25T10:26:27.876Z,2.53
2018-06-25T10:28:56.820Z,1.20
2018-06-25T10:31:24.902Z,1.30
2018-06-25T10:33:52.988Z,1.77
2018-06-25T10:36:21.082Z,1.95
2018-06-25T10:38:49.164Z,2.67
2018-06-25T10:41:17.232Z,2.58
2018-06-25T10:43:45.317Z,1.67
2018-06-25T10:46:13.397Z,2.80
2018-06-25T10:48:41.498Z,5.40
2018-06-25T10:51:09.625Z,2.37
2018-06-25T10:53:37.712Z,1.53
2018-06-25T10:56:05.796Z,1.20
2018-06-25T10:58:33.880Z,3.40
2018-06-25T11:01:02.016Z,1.40
2018-06-25T11:03:30.122Z,1.60
2018-06-25T11:05:58.789Z,2.50
2018-06-25T11:08:27.040Z,1.60
2018-06-25T11:10:55.552Z,2.33
2018-06-25T11:13:23.646Z,1.80
2018-06-25T11:15:51.739Z,1.63
2018-06-25T11:18:19.840Z,1.43
2018-06-25T11:20:47.984Z,2.50
2018-06-25T11:23:16.072Z,1.62
2018-06-25T11:25:44.224Z,1.60
2018-06-25T11:28:12.320Z,1.92
2018-06-25T11:30:40.438Z,1.73
2018-06-25T11:33:08.540Z,2.17
2018-06-25T11:35:36.623Z,2.20
2018-06-25T11:38:04.820Z,1.60
2018-06-25T11:40:32.984Z,1.63
2018-06-25T11:43:01.077Z,2.00
2018-06-25T11:45:29.797Z,2.00
2018-06-25T11:47:57.972Z,1.70
2018-06-25T11:50:26.112Z,2.13
2018-06-25T11:52:54.185Z,2.60
2018-06-25T11:55:22.284Z,1.50
2018-06-25T11:57:50.356Z,1.80
2018-06-25T12:00:18.494Z,9.30
2018-06-25T12:02:47.005Z,8.17
2018-06-25T12:05:15.048Z,1.90
2018-06-25T12:07:43.130Z,1.90
2018-06-25T12:10:11.253Z,2.80
2018-06-25T12:12:39.416Z,2.83
2018-06-25T12:15:07.669Z,1.70
2018-06-25T12:17:36.585Z,1.70
2018-06-25T12:20:04.631Z,3.70
2018-06-25T12:22:32.738Z,2.07
2018-06-25T12:25:00.814Z,2.13
2018-06-25T12:27:29.016Z,2.20
2018-06-25T12:29:57.102Z,1.80
2018-06-25T12:32:25.177Z,1.70
2018-06-25T12:34:53.284Z,1.60
2018-06-25T12:37:21.369Z,1.60
2018-06-25T12:39:49.474Z,2.07
2018-06-25T12:42:17.541Z,3.00
2018-06-25T12:44:45.616Z,1.60
2018-06-25T12:47:13.689Z,1.40
2018-06-25T12:49:41.802Z,1.60
2018-06-25T12:52:09.901Z,2.63
2018-06-25T12:54:38.000Z,2.50
2018-06-25T12:57:06.138Z,1.60
2018-06-25T12:59:34.199Z,7.40
2018-06-25T13:02:02.258Z,3.12
2018-06-25T13:04:30.351Z,1.70
2018-06-25T13:06:58.811Z,1.40
2018-06-25T13:09:26.898Z,1.50
2018-06-25T13:11:55.037Z,1.67
2018-06-25T22:02:36.299Z,4.30
2018-06-25T22:05:04.389Z,3.20
2018-06-25T22:07:32.465Z,6.90
2018-06-25T22:10:00.652Z,3.30
2018-06-25T22:12:28.724Z,9.03
2018-06-25T22:14:56.967Z,2.20
2018-06-25T22:17:25.210Z,3.10
2018-06-25T22:19:53.591Z,3.00
2018-06-25T22:22:21.784Z,8.97
2018-06-25T22:24:49.852Z,3.23
2018-06-25T22:27:17.944Z,5.30
2018-06-25T22:29:46.115Z,3.37
2018-06-25T22:32:14.224Z,4.93
2018-06-25T22:34:42.352Z,13.83
2018-06-25T22:37:10.435Z,9.50
2018-06-25T22:39:38.504Z,7.70
2018-06-25T22:42:06.700Z,2.63
2018-06-25T22:44:34.780Z,4.13
2018-06-25T22:47:02.933Z,7.00
2018-06-25T22:49:31.282Z,2.70
2018-06-25T22:51:59.554Z,5.13
2018-06-25T22:54:27.647Z,4.10
2018-06-25T22:56:55.747Z,5.63
2018-06-25T22:59:23.874Z,4.50
2018-06-25T23:01:52.051Z,5.43
2018-06-25T23:04:20.128Z,5.80
2018-06-25T23:06:48.224Z,3.33
2018-06-25T23:09:16.372Z,2.97
2018-06-25T23:11:44.756Z,2.70
2018-06-25T23:14:13.000Z,2.10
2018-06-25T23:16:41.127Z,3.53
2018-06-25T23:19:09.200Z,3.40
2018-06-25T23:21:37.268Z,3.13
2018-06-25T23:24:05.351Z,2.23
2018-06-25T23:26:33.509Z,3.43
2018-06-25T23:29:01.774Z,3.25
2018-06-25T23:31:29.904Z,2.07
2018-06-25T23:33:57.988Z,3.63
2018-06-25T23:36:26.140Z,3.23
2018-06-25T23:38:54.216Z,2.20
2018-06-25T23:41:23.049Z,2.98
2018-06-25T23:43:51.122Z,7.30
2018-06-25T23:46:19.297Z,2.30
2018-06-25T23:48:47.436Z,4.00
2018-06-25T23:51:15.515Z,2.73
2018-06-25T23:53:43.665Z,3.35
2018-06-25T23:56:11.904Z,4.03
2018-06-25T23:58:39.996Z,5.20
